West Ossipee, New Hampshire
Current Conditions -  °F | °C
As of 4:37 PM on Friday 24 Oct 2014 (Local Time) from KIZG Reporting Station
Overcast Overcast  
Wind Chill: 51°   Ceiling: 2600
Heat Index: 51°   Visibility: 10mi
Dew Point: 41°   Wind: 6mph
Humidity: 68%   Direction: 360°N
Pressure: 29.67"   Gusts: NA
Location:  43.82°N, 71.21°W
Report Text: KIZG 242037Z AUTO 36005KT 10SM BKN026 OVC100 11/05 A2967 RMK AO2 T01060050
Loading
Personal Weather Stations






























Interactive Weather Map New forecast layout! Learn more

10-Day Weather Forecast

Advertisements
Track Severe Weather on mobile